Time;durP1;ratioP1;P1;durP2;ratioP2;P2;SDS_P1;SDS_P2;PMS_P1;PMS_P2;Temp;Humidity;BMP_temperature;BMP_pressure;BME280_temperature;BME280_humidity;BME280_pressure;Samples;Min_cycle;Max_cycle;Signal;HPM_P1;HPM_P2
2022/07/25 00:01:51;;;;;;;12.98;9.85;;;13.00;99.90;;;;;;5032318;28;20042;-66
2022/07/25 00:04:18;;;;;;;14.15;11.02;;;13.10;99.90;;;;;;5037327;28;20038;-66
2022/07/25 00:06:45;;;;;;;15.80;10.68;;;13.30;99.90;;;;;;5038115;28;20057;-66
2022/07/25 00:09:13;;;;;;;15.43;10.55;;;13.00;99.90;;;;;;5034174;28;20038;-66
2022/07/25 00:11:40;;;;;;;14.25;10.18;;;13.30;99.90;;;;;;5038642;28;20021;-66
2022/07/25 00:14:08;;;;;;;13.05;9.45;;;13.60;99.90;;;;;;5039471;28;20030;-66
2022/07/25 00:16:35;;;;;;;12.70;9.88;;;13.50;99.90;;;;;;5039135;28;20057;-66
2022/07/25 00:19:02;;;;;;;17.10;10.52;;;13.50;99.90;;;;;;5039883;28;20021;-66
2022/07/25 00:21:30;;;;;;;16.00;8.77;;;13.40;99.90;;;;;;5036602;28;20049;-66
2022/07/25 00:23:57;;;;;;;10.68;8.43;;;13.60;99.90;;;;;;5035911;28;20035;-65
2022/07/25 00:26:24;;;;;;;15.93;9.50;;;13.20;99.90;;;;;;5037406;28;20034;-66
2022/07/25 00:28:51;;;;;;;11.45;8.40;;;13.20;99.90;;;;;;5039948;28;20022;-67
2022/07/25 00:31:19;;;;;;;11.93;8.52;;;13.20;99.90;;;;;;5037854;28;20041;-66
2022/07/25 00:33:46;;;;;;;13.45;9.20;;;13.20;99.90;;;;;;5032727;28;20041;-64
2022/07/25 00:36:13;;;;;;;12.50;8.68;;;13.50;99.90;;;;;;5029457;28;20060;-64
2022/07/25 00:38:41;;;;;;;16.60;9.93;;;13.60;99.90;;;;;;5038573;28;20034;-64
2022/07/25 00:41:08;;;;;;;15.98;10.20;;;13.40;99.90;;;;;;5022215;28;20026;-64
2022/07/25 00:43:35;;;;;;;13.40;9.95;;;13.50;99.90;;;;;;5036604;28;20106;-65
2022/07/25 00:46:03;;;;;;;13.68;9.13;;;13.50;99.90;;;;;;5030630;28;20022;-65
2022/07/25 00:48:31;;;;;;;12.57;9.35;;;13.80;99.90;;;;;;5031200;28;20046;-65
2022/07/25 00:50:59;;;;;;;13.95;9.25;;;14.00;99.90;;;;;;5028155;28;20041;-65
2022/07/25 00:53:26;;;;;;;11.90;8.43;;;14.20;99.90;;;;;;5042128;28;20026;-66
2022/07/25 00:55:54;;;;;;;13.63;9.05;;;14.20;99.90;;;;;;5038320;28;20097;-66
2022/07/25 00:58:22;;;;;;;14.05;8.88;;;14.30;99.90;;;;;;5034244;28;20022;-65
2022/07/25 01:00:49;;;;;;;9.43;8.18;;;14.30;99.90;;;;;;5037894;28;20052;-65
2022/07/25 01:03:17;;;;;;;15.43;8.23;;;14.00;99.90;;;;;;5038733;28;20034;-65
2022/07/25 01:05:44;;;;;;;10.05;8.45;;;14.10;99.90;;;;;;5038744;28;20065;-65
2022/07/25 01:08:13;;;;;;;16.90;9.10;;;14.20;99.90;;;;;;5038053;28;20040;-66
2022/07/25 01:10:40;;;;;;;12.23;8.70;;;14.00;99.90;;;;;;5038308;28;20053;-66
2022/07/25 01:13:07;;;;;;;12.65;8.23;;;14.00;99.90;;;;;;5019888;28;20018;-65
2022/07/25 01:15:35;;;;;;;12.05;8.30;;;14.10;99.90;;;;;;5013042;28;20110;-65
2022/07/25 01:18:02;;;;;;;14.45;9.82;;;14.00;99.90;;;;;;5037959;28;20073;-65
2022/07/25 01:20:31;;;;;;;11.80;8.25;;;14.00;99.90;;;;;;5036697;28;20022;-65
2022/07/25 01:23:00;;;;;;;10.43;7.63;;;14.20;99.90;;;;;;5024232;28;20029;-65
2022/07/25 01:25:28;;;;;;;11.68;8.55;;;14.40;99.90;;;;;;5037673;28;20041;-65
2022/07/25 01:27:56;;;;;;;13.73;7.80;;;14.30;99.90;;;;;;5038212;28;20037;-65
2022/07/25 01:30:25;;;;;;;11.80;7.38;;;14.50;99.90;;;;;;5038175;28;20029;-65
2022/07/25 01:32:52;;;;;;;10.05;7.50;;;14.60;99.90;;;;;;5030918;28;20041;-65
2022/07/25 01:35:20;;;;;;;11.25;8.55;;;14.50;99.90;;;;;;5032858;28;20057;-65
2022/07/25 01:37:47;;;;;;;7.32;6.13;;;14.60;99.90;;;;;;5026532;28;20042;-65
2022/07/25 01:40:15;;;;;;;6.80;5.70;;;14.60;99.90;;;;;;5037659;28;20022;-65
2022/07/25 01:42:43;;;;;;;7.70;4.03;;;14.40;99.90;;;;;;5032431;28;20018;-65
2022/07/25 01:45:12;;;;;;;8.23;4.70;;;14.40;99.90;;;;;;5036693;28;20025;-65
2022/07/25 01:47:39;;;;;;;6.35;3.53;;;14.60;99.90;;;;;;5032268;28;20042;-65
2022/07/25 01:50:08;;;;;;;6.40;3.70;;;14.70;99.90;;;;;;5035824;28;20049;-66
2022/07/25 01:52:38;;;;;;;6.72;4.20;;;14.80;99.90;;;;;;5036949;28;20010;-66
2022/07/25 01:55:06;;;;;;;8.40;4.53;;;15.00;99.90;;;;;;5037936;28;20026;-66
2022/07/25 01:57:33;;;;;;;6.55;4.38;;;15.20;99.90;;;;;;5037319;28;20054;-66
2022/07/25 02:00:01;;;;;;;10.75;4.38;;;15.40;99.90;;;;;;5038611;28;20077;-66
2022/07/25 02:02:28;;;;;;;7.88;3.88;;;15.50;99.90;;;;;;5037552;28;20029;-66
2022/07/25 02:04:55;;;;;;;8.45;3.35;;;15.70;99.90;;;;;;5021670;28;20026;-66
2022/07/25 02:07:22;;;;;;;5.10;3.30;;;16.00;99.90;;;;;;5034862;28;20032;-66
2022/07/25 02:09:50;;;;;;;6.68;3.00;;;16.40;99.90;;;;;;5038197;28;20018;-66
2022/07/25 02:12:17;;;;;;;6.93;2.42;;;16.60;99.90;;;;;;5037418;28;20080;-66
2022/07/25 02:14:44;;;;;;;6.05;2.70;;;17.40;99.90;;;;;;5021329;28;20026;-66
2022/07/25 02:17:11;;;;;;;8.80;2.72;;;17.90;99.90;;;;;;5037081;28;20061;-64
2022/07/25 02:19:39;;;;;;;4.03;1.88;;;17.80;99.90;;;;;;5038419;28;20033;-64
2022/07/25 02:22:06;;;;;;;5.20;2.17;;;18.10;99.90;;;;;;5037131;28;20026;-65
2022/07/25 02:24:35;;;;;;;6.55;2.25;;;18.40;99.90;;;;;;5035342;28;20018;-66
2022/07/25 02:27:06;;;;;;;4.43;1.92;;;18.00;99.90;;;;;;5037150;28;20042;-66
2022/07/25 02:29:34;;;;;;;3.33;1.70;;;18.10;99.90;;;;;;5037862;28;20049;-65
2022/07/25 02:32:02;;;;;;;3.58;1.60;;;18.90;99.90;;;;;;5036069;28;20442;-66
2022/07/25 02:34:29;;;;;;;7.88;2.72;;;19.60;99.90;;;;;;5029489;28;20022;-66
2022/07/25 02:36:56;;;;;;;5.22;1.63;;;18.80;99.90;;;;;;5034519;28;20050;-66
2022/07/25 02:39:24;;;;;;;6.88;1.65;;;18.30;99.90;;;;;;5035120;28;20026;-65
2022/07/25 02:41:51;;;;;;;5.10;1.75;;;18.90;99.90;;;;;;5035372;28;20033;-65
2022/07/25 02:44:18;;;;;;;4.80;1.67;;;19.30;99.90;;;;;;5035440;28;20034;-66
2022/07/25 02:46:45;;;;;;;2.45;1.55;;;18.90;99.90;;;;;;5037377;28;20049;-66
2022/07/25 02:49:13;;;;;;;4.93;1.45;;;19.10;99.90;;;;;;5021079;28;20042;-66
2022/07/25 02:51:40;;;;;;;3.80;1.90;;;20.00;99.90;;;;;;5014727;28;20042;-66
2022/07/25 02:54:07;;;;;;;5.13;1.85;;;19.80;99.90;;;;;;5033582;28;20064;-67
